Terminal Aerodrome Forecast
Issued by NWS

Home | Current Version | Previous Version | Text Only | Print | Product List | Glossary On
Versions: 1 2 3 4 5 6 7 8 9 10 11 12 13 14 15 16 17 18 19 20 21 22 23 24 25 26 27 28 29 30 31 32
000
FTUS43 KGLD 291550 AAB
TAFMCK
TAF AMD
KMCK 291550Z 2916/3012 04014KT 1SM -SN BR OVC005
      TEMPO 2916/2917 2SM BR OVC009
     FM291700 02017KT 2SM -SN BR OVC005
     FM300500 02010KT 5SM BR OVC007
      TEMPO 3005/3009 1SM -SN=

USA.gov is the U.S. government's official web portal to all federal, state and local government web resources and services.